sensor_id;sensor_type;location;lat;lon;timestamp;temperature;humidity
51011;DHT22;37038;50.182;8.624;2022-08-21T00:02:14;18.10;99.90
51011;DHT22;37038;50.182;8.624;2022-08-21T00:05:04;18.00;99.90
51011;DHT22;37038;50.182;8.624;2022-08-21T00:07:52;18.00;99.90
51011;DHT22;37038;50.182;8.624;2022-08-21T00:10:41;17.90;99.90
51011;DHT22;37038;50.182;8.624;2022-08-21T00:13:29;17.80;99.90
51011;DHT22;37038;50.182;8.624;2022-08-21T00:16:17;17.80;99.90
51011;DHT22;37038;50.182;8.624;2022-08-21T00:19:06;17.70;99.90
51011;DHT22;37038;50.182;8.624;2022-08-21T00:21:55;17.70;99.90
51011;DHT22;37038;50.182;8.624;2022-08-21T00:24:43;17.70;99.90
51011;DHT22;37038;50.182;8.624;2022-08-21T00:27:31;17.70;99.90
51011;DHT22;37038;50.182;8.624;2022-08-21T00:30:21;17.70;99.90
51011;DHT22;37038;50.182;8.624;2022-08-21T00:33:11;17.60;99.90
51011;DHT22;37038;50.182;8.624;2022-08-21T00:35:59;17.60;99.90
51011;DHT22;37038;50.182;8.624;2022-08-21T00:38:47;17.60;99.90
51011;DHT22;37038;50.182;8.624;2022-08-21T00:41:37;17.60;99.90
51011;DHT22;37038;50.182;8.624;2022-08-21T00:44:26;17.50;99.90
51011;DHT22;37038;50.182;8.624;2022-08-21T00:47:14;17.50;99.90
51011;DHT22;37038;50.182;8.624;2022-08-21T00:50:04;17.50;99.90
51011;DHT22;37038;50.182;8.624;2022-08-21T00:52:59;17.50;99.90
51011;DHT22;37038;50.182;8.624;2022-08-21T00:55:49;17.50;99.90
51011;DHT22;37038;50.182;8.624;2022-08-21T00:58:40;17.40;99.90
51011;DHT22;37038;50.182;8.624;2022-08-21T01:01:30;17.40;99.90
51011;DHT22;37038;50.182;8.624;2022-08-21T01:04:19;17.40;99.90
51011;DHT22;37038;50.182;8.624;2022-08-21T01:07:08;17.40;99.90
51011;DHT22;37038;50.182;8.624;2022-08-21T01:09:56;17.40;99.90
51011;DHT22;37038;50.182;8.624;2022-08-21T01:12:44;17.40;99.90
51011;DHT22;37038;50.182;8.624;2022-08-21T01:15:35;17.40;99.90
51011;DHT22;37038;50.182;8.624;2022-08-21T01:18:27;17.30;99.90
51011;DHT22;37038;50.182;8.624;2022-08-21T01:21:22;17.30;99.90
51011;DHT22;37038;50.182;8.624;2022-08-21T01:24:14;17.30;99.90
51011;DHT22;37038;50.182;8.624;2022-08-21T01:27:03;17.20;99.90
51011;DHT22;37038;50.182;8.624;2022-08-21T01:29:57;17.20;99.90
51011;DHT22;37038;50.182;8.624;2022-08-21T01:32:47;17.20;99.90
51011;DHT22;37038;50.182;8.624;2022-08-21T01:35:36;17.20;99.90
51011;DHT22;37038;50.182;8.624;2022-08-21T01:38:25;17.10;99.90
51011;DHT22;37038;50.182;8.624;2022-08-21T01:41:15;17.10;99.90
51011;DHT22;37038;50.182;8.624;2022-08-21T01:44:03;17.10;99.90
51011;DHT22;37038;50.182;8.624;2022-08-21T01:46:51;17.20;99.90
51011;DHT22;37038;50.182;8.624;2022-08-21T01:49:40;17.20;99.90
51011;DHT22;37038;50.182;8.624;2022-08-21T01:52:29;17.20;99.90
51011;DHT22;37038;50.182;8.624;2022-08-21T01:55:18;17.20;99.90
51011;DHT22;37038;50.182;8.624;2022-08-21T01:58:06;17.20;99.90
51011;DHT22;37038;50.182;8.624;2022-08-21T02:00:54;17.20;99.90
51011;DHT22;37038;50.182;8.624;2022-08-21T02:03:42;17.10;99.90
51011;DHT22;37038;50.182;8.624;2022-08-21T02:06:30;17.10;99.90
51011;DHT22;37038;50.182;8.624;2022-08-21T02:09:19;17.00;99.90
51011;DHT22;37038;50.182;8.624;2022-08-21T02:12:07;17.00;99.90
51011;DHT22;37038;50.182;8.624;2022-08-21T02:14:54;17.00;99.90
51011;DHT22;37038;50.182;8.624;2022-08-21T02:17:45;16.90;99.90
51011;DHT22;37038;50.182;8.624;2022-08-21T02:20:40;16.80;99.90
51011;DHT22;37038;50.182;8.624;2022-08-21T02:23:29;16.80;99.90
51011;DHT22;37038;50.182;8.624;2022-08-21T02:26:18;16.70;99.90
51011;DHT22;37038;50.182;8.624;2022-08-21T02:29:06;16.60;99.90
51011;DHT22;37038;50.182;8.624;2022-08-21T02:31:54;16.60;99.90
51011;DHT22;37038;50.182;8.624;2022-08-21T02:34:41;16.50;99.90
51011;DHT22;37038;50.182;8.624;2022-08-21T02:37:30;16.40;99.90
51011;DHT22;37038;50.182;8.624;2022-08-21T02:40:21;16.40;99.90
51011;DHT22;37038;50.182;8.624;2022-08-21T02:43:11;16.30;99.90
51011;DHT22;37038;50.182;8.624;2022-08-21T02:45:59;16.30;99.90
51011;DHT22;37038;50.182;8.624;2022-08-21T02:48:47;16.20;99.90
51011;DHT22;37038;50.182;8.624;2022-08-21T02:51:35;16.20;99.90
51011;DHT22;37038;50.182;8.624;2022-08-21T02:54:23;16.20;99.90
51011;DHT22;37038;50.182;8.624;2022-08-21T02:57:12;16.20;99.90
51011;DHT22;37038;50.182;8.624;2022-08-21T02:59:59;16.10;99.90
51011;DHT22;37038;50.182;8.624;2022-08-21T03:02:48;16.10;99.90
51011;DHT22;37038;50.182;8.624;2022-08-21T03:05:36;16.00;99.90
51011;DHT22;37038;50.182;8.624;2022-08-21T03:08:25;15.90;99.90
51011;DHT22;37038;50.182;8.624;2022-08-21T03:11:16;15.90;99.90
51011;DHT22;37038;50.182;8.624;2022-08-21T03:14:04;15.90;99.90
51011;DHT22;37038;50.182;8.624;2022-08-21T03:16:52;15.80;99.90
51011;DHT22;37038;50.182;8.624;2022-08-21T03:19:41;15.70;99.90
51011;DHT22;37038;50.182;8.624;2022-08-21T03:22:29;15.70;99.90
51011;DHT22;37038;50.182;8.624;2022-08-21T03:25:18;15.60;99.90
51011;DHT22;37038;50.182;8.624;2022-08-21T03:28:19;15.60;99.90
51011;DHT22;37038;50.182;8.624;2022-08-21T03:31:08;15.60;99.90
51011;DHT22;37038;50.182;8.624;2022-08-21T03:33:57;15.60;99.90
51011;DHT22;37038;50.182;8.624;2022-08-21T03:36:45;15.60;99.90
51011;DHT22;37038;50.182;8.624;2022-08-21T03:39:33;15.60;99.90
51011;DHT22;37038;50.182;8.624;2022-08-21T03:42:22;15.50;99.90
51011;DHT22;37038;50.182;8.624;2022-08-21T03:45:10;15.50;99.90
51011;DHT22;37038;50.182;8.624;2022-08-21T03:48:01;15.50;99.90
51011;DHT22;37038;50.182;8.624;2022-08-21T03:50:52;15.50;99.90
51011;DHT22;37038;50.182;8.624;2022-08-21T03:53:40;15.50;99.90
51011;DHT22;37038;50.182;8.624;2022-08-21T03:56:28;15.50;99.90
51011;DHT22;37038;50.182;8.624;2022-08-21T03:59:16;15.50;99.90
51011;DHT22;37038;50.182;8.624;2022-08-21T04:02:05;15.50;99.90
51011;DHT22;37038;50.182;8.624;2022-08-21T04:04:54;15.40;99.90
51011;DHT22;37038;50.182;8.624;2022-08-21T04:07:41;15.50;99.90
51011;DHT22;37038;50.182;8.624;2022-08-21T04:10:34;15.50;99.90
51011;DHT22;37038;50.182;8.624;2022-08-21T04:13:24;15.50;99.90
51011;DHT22;37038;50.182;8.624;2022-08-21T04:16:14;15.40;99.90
51011;DHT22;37038;50.182;8.624;2022-08-21T04:19:02;15.40;99.90
51011;DHT22;37038;50.182;8.624;2022-08-21T04:21:50;15.30;99.90
51011;DHT22;37038;50.182;8.624;2022-08-21T04:24:39;15.20;99.90
51011;DHT22;37038;50.182;8.624;2022-08-21T04:27:27;15.20;99.90
51011;DHT22;37038;50.182;8.624;2022-08-21T04:30:15;15.10;99.90
51011;DHT22;37038;50.182;8.624;2022-08-21T04:33:03;15.10;99.90
51011;DHT22;37038;50.182;8.624;2022-08-21T04:35:51;15.10;99.90
51011;DHT22;37038;50.182;8.624;2022-08-21T04:38:39;15.10;99.90
51011;DHT22;37038;50.182;8.624;2022-08-21T04:41:31;15.10;99.90
51011;DHT22;37038;50.182;8.624;2022-08-21T04:44:18;15.10;99.90
51011;DHT22;37038;50.182;8.624;2022-08-21T04:47:06;15.10;99.90
51011;DHT22;37038;50.182;8.624;2022-08-21T04:49:55;15.20;99.90
51011;DHT22;37038;50.182;8.624;2022-08-21T04:52:43;15.20;99.90
51011;DHT22;37038;50.182;8.624;2022-08-21T04:55:31;15.30;99.90
51011;DHT22;37038;50.182;8.624;2022-08-21T04:58:20;15.30;99.90
51011;DHT22;37038;50.182;8.624;2022-08-21T05:01:16;15.30;99.90
51011;DHT22;37038;50.182;8.624;2022-08-21T05:04:10;15.30;99.90
51011;DHT22;37038;50.182;8.624;2022-08-21T05:07:03;15.30;99.90
51011;DHT22;37038;50.182;8.624;2022-08-21T05:09:52;15.30;99.90
51011;DHT22;37038;50.182;8.624;2022-08-21T05:12:42;15.30;99.90
51011;DHT22;37038;50.182;8.624;2022-08-21T05:15:30;15.40;99.90
51011;DHT22;37038;50.182;8.624;2022-08-21T05:18:19;15.50;99.90
51011;DHT22;37038;50.182;8.624;2022-08-21T05:21:07;15.50;99.90
51011;DHT22;37038;50.182;8.624;2022-08-21T05:23:55;15.70;99.90
51011;DHT22;37038;50.182;8.624;2022-08-21T05:26:44;15.80;99.90
51011;DHT22;37038;50.182;8.624;2022-08-21T05:29:33;15.90;99.90
51011;DHT22;37038;50.182;8.624;2022-08-21T05:32:22;16.00;99.90
51011;DHT22;37038;50.182;8.624;2022-08-21T05:35:10;16.20;99.90
51011;DHT22;37038;50.182;8.624;2022-08-21T05:37:59;16.20;99.90
51011;DHT22;37038;50.182;8.624;2022-08-21T05:40:47;16.40;99.90
51011;DHT22;37038;50.182;8.624;2022-08-21T05:43:35;16.50;99.90
51011;DHT22;37038;50.182;8.624;2022-08-21T05:46:23;16.60;99.90
51011;DHT22;37038;50.182;8.624;2022-08-21T05:49:12;16.70;99.90
51011;DHT22;37038;50.182;8.624;2022-08-21T05:52:00;16.80;99.90
51011;DHT22;37038;50.182;8.624;2022-08-21T05:54:49;17.00;99.90
51011;DHT22;37038;50.182;8.624;2022-08-21T05:57:37;17.20;99.90
51011;DHT22;37038;50.182;8.624;2022-08-21T06:00:28;17.30;99.90
51011;DHT22;37038;50.182;8.624;2022-08-21T06:03:19;17.40;99.90
51011;DHT22;37038;50.182;8.624;2022-08-21T06:06:09;17.50;99.90
51011;DHT22;37038;50.182;8.624;2022-08-21T06:08:57;17.60;99.90
51011;DHT22;37038;50.182;8.624;2022-08-21T06:11:45;17.70;99.90
51011;DHT22;37038;50.182;8.624;2022-08-21T06:14:33;17.70;99.90
51011;DHT22;37038;50.182;8.624;2022-08-21T06:17:21;17.70;99.90
51011;DHT22;37038;50.182;8.624;2022-08-21T06:20:09;17.90;99.90
51011;DHT22;37038;50.182;8.624;2022-08-21T06:22:57;18.00;99.90
51011;DHT22;37038;50.182;8.624;2022-08-21T06:25:45;18.10;99.90
51011;DHT22;37038;50.182;8.624;2022-08-21T06:28:35;18.30;99.90
51011;DHT22;37038;50.182;8.624;2022-08-21T06:31:25;18.50;99.90
51011;DHT22;37038;50.182;8.624;2022-08-21T06:34:15;18.70;99.90
51011;DHT22;37038;50.182;8.624;2022-08-21T06:37:03;18.70;99.90
51011;DHT22;37038;50.182;8.624;2022-08-21T06:39:51;18.80;99.90
51011;DHT22;37038;50.182;8.624;2022-08-21T06:42:39;18.90;99.90
51011;DHT22;37038;50.182;8.624;2022-08-21T06:45:29;18.90;99.90
51011;DHT22;37038;50.182;8.624;2022-08-21T06:48:19;19.00;99.90
51011;DHT22;37038;50.182;8.624;2022-08-21T06:51:07;19.00;99.90
51011;DHT22;37038;50.182;8.624;2022-08-21T06:53:55;19.10;99.90
51011;DHT22;37038;50.182;8.624;2022-08-21T06:56:45;19.30;99.90
51011;DHT22;37038;50.182;8.624;2022-08-21T06:59:34;19.50;99.90
51011;DHT22;37038;50.182;8.624;2022-08-21T07:02:22;19.60;99.90
51011;DHT22;37038;50.182;8.624;2022-08-21T07:05:10;19.70;99.90
51011;DHT22;37038;50.182;8.624;2022-08-21T07:08:06;19.90;99.90
51011;DHT22;37038;50.182;8.624;2022-08-21T07:10:58;20.20;99.90
51011;DHT22;37038;50.182;8.624;2022-08-21T07:13:49;20.30;99.90
51011;DHT22;37038;50.182;8.624;2022-08-21T07:16:41;20.30;99.90
51011;DHT22;37038;50.182;8.624;2022-08-21T07:19:29;20.50;99.90
51011;DHT22;37038;50.182;8.624;2022-08-21T07:22:22;20.50;99.90
51011;DHT22;37038;50.182;8.624;2022-08-21T07:25:12;20.80;99.90
51011;DHT22;37038;50.182;8.624;2022-08-21T07:28:02;21.00;99.90
51011;DHT22;37038;50.182;8.624;2022-08-21T07:30:56;21.20;99.90
51011;DHT22;37038;50.182;8.624;2022-08-21T07:33:47;21.40;99.90
51011;DHT22;37038;50.182;8.624;2022-08-21T07:36:41;21.60;99.90
51011;DHT22;37038;50.182;8.624;2022-08-21T07:39:30;21.80;99.90
51011;DHT22;37038;50.182;8.624;2022-08-21T07:42:21;21.90;99.90
51011;DHT22;37038;50.182;8.624;2022-08-21T07:45:15;22.20;99.90
51011;DHT22;37038;50.182;8.624;2022-08-21T07:48:05;22.50;99.90
51011;DHT22;37038;50.182;8.624;2022-08-21T07:50:57;22.60;99.90
51011;DHT22;37038;50.182;8.624;2022-08-21T07:53:51;22.70;99.90
51011;DHT22;37038;50.182;8.624;2022-08-21T07:56:44;22.80;99.90
51011;DHT22;37038;50.182;8.624;2022-08-21T07:59:37;23.00;99.90
51011;DHT22;37038;50.182;8.624;2022-08-21T08:02:30;23.30;99.90
51011;DHT22;37038;50.182;8.624;2022-08-21T08:05:25;23.30;99.90
51011;DHT22;37038;50.182;8.624;2022-08-21T08:08:18;23.50;99.90
51011;DHT22;37038;50.182;8.624;2022-08-21T08:11:11;23.70;99.90
51011;DHT22;37038;50.182;8.624;2022-08-21T08:14:06;24.10;99.90
51011;DHT22;37038;50.182;8.624;2022-08-21T08:16:58;24.50;99.90
51011;DHT22;37038;50.182;8.624;2022-08-21T08:19:51;24.90;99.90
51011;DHT22;37038;50.182;8.624;2022-08-21T08:22:42;25.30;99.90
51011;DHT22;37038;50.182;8.624;2022-08-21T08:25:39;25.60;99.90
51011;DHT22;37038;50.182;8.624;2022-08-21T08:28:32;25.70;99.90
51011;DHT22;37038;50.182;8.624;2022-08-21T08:31:24;25.80;99.90
51011;DHT22;37038;50.182;8.624;2022-08-21T08:34:15;25.90;99.90
51011;DHT22;37038;50.182;8.624;2022-08-21T08:37:14;26.30;99.90
51011;DHT22;37038;50.182;8.624;2022-08-21T08:40:04;26.60;99.90
51011;DHT22;37038;50.182;8.624;2022-08-21T08:42:58;27.30;99.90
51011;DHT22;37038;50.182;8.624;2022-08-21T08:45:53;27.90;99.90
51011;DHT22;37038;50.182;8.624;2022-08-21T08:49:15;28.60;99.90
51011;DHT22;37038;50.182;8.624;2022-08-21T08:52:29;29.20;98.20
51011;DHT22;37038;50.182;8.624;2022-08-21T08:55:33;29.80;93.30
51011;DHT22;37038;50.182;8.624;2022-08-21T08:58:33;29.90;87.20
51011;DHT22;37038;50.182;8.624;2022-08-21T09:01:27;30.10;89.30
51011;DHT22;37038;50.182;8.624;2022-08-21T09:04:25;30.60;84.10
51011;DHT22;37038;50.182;8.624;2022-08-21T09:11:04;31.10;76.10
51011;DHT22;37038;50.182;8.624;2022-08-21T09:24:16;31.20;66.10
51011;DHT22;37038;50.182;8.624;2022-08-21T09:27:23;31.80;61.90
51011;DHT22;37038;50.182;8.624;2022-08-21T09:30:13;32.40;61.70
51011;DHT22;37038;50.182;8.624;2022-08-21T09:33:02;32.50;51.20
51011;DHT22;37038;50.182;8.624;2022-08-21T09:35:55;32.00;48.50
51011;DHT22;37038;50.182;8.624;2022-08-21T09:38:54;31.30;50.70
51011;DHT22;37038;50.182;8.624;2022-08-21T09:41:46;30.90;52.00
51011;DHT22;37038;50.182;8.624;2022-08-21T09:45:09;30.20;53.50
51011;DHT22;37038;50.182;8.624;2022-08-21T09:48:15;30.10;53.00
51011;DHT22;37038;50.182;8.624;2022-08-21T09:51:12;30.50;53.70
51011;DHT22;37038;50.182;8.624;2022-08-21T09:54:14;30.50;50.60
51011;DHT22;37038;50.182;8.624;2022-08-21T09:57:16;29.70;50.90
51011;DHT22;37038;50.182;8.624;2022-08-21T10:00:35;29.10;55.20
51011;DHT22;37038;50.182;8.624;2022-08-21T10:03:27;28.90;62.00
51011;DHT22;37038;50.182;8.624;2022-08-21T10:06:27;29.50;57.20
51011;DHT22;37038;50.182;8.624;2022-08-21T10:09:23;30.30;55.20
51011;DHT22;37038;50.182;8.624;2022-08-21T10:12:22;31.00;54.70
51011;DHT22;37038;50.182;8.624;2022-08-21T10:19:25;30.40;46.90
51011;DHT22;37038;50.182;8.624;2022-08-21T10:22:13;29.40;49.60
51011;DHT22;37038;50.182;8.624;2022-08-21T10:25:28;28.90;51.60
51011;DHT22;37038;50.182;8.624;2022-08-21T10:36:20;27.50;55.10
51011;DHT22;37038;50.182;8.624;2022-08-21T10:39:35;27.20;57.20
51011;DHT22;37038;50.182;8.624;2022-08-21T10:42:49;26.90;56.50
51011;DHT22;37038;50.182;8.624;2022-08-21T10:56:04;28.00;50.90
51011;DHT22;37038;50.182;8.624;2022-08-21T10:59:15;28.20;50.00
51011;DHT22;37038;50.182;8.624;2022-08-21T11:05:32;28.20;52.30
51011;DHT22;37038;50.182;8.624;2022-08-21T11:08:37;28.30;48.70
51011;DHT22;37038;50.182;8.624;2022-08-21T11:11:44;28.30;50.80
51011;DHT22;37038;50.182;8.624;2022-08-21T11:15:03;28.40;51.40
51011;DHT22;37038;50.182;8.624;2022-08-21T11:21:32;28.30;55.90
51011;DHT22;37038;50.182;8.624;2022-08-21T11:24:42;28.20;50.80
51011;DHT22;37038;50.182;8.624;2022-08-21T11:27:52;28.00;49.20
51011;DHT22;37038;50.182;8.624;2022-08-21T11:41:12;27.70;46.20
51011;DHT22;37038;50.182;8.624;2022-08-21T11:44:41;27.50;49.10
51011;DHT22;37038;50.182;8.624;2022-08-21T11:48:02;27.60;49.70
51011;DHT22;37038;50.182;8.624;2022-08-21T11:51:11;27.60;47.50
51011;DHT22;37038;50.182;8.624;2022-08-21T11:54:33;27.30;50.70
51011;DHT22;37038;50.182;8.624;2022-08-21T11:58:07;27.10;51.10
51011;DHT22;37038;50.182;8.624;2022-08-21T12:01:25;27.00;49.00
51011;DHT22;37038;50.182;8.624;2022-08-21T12:04:29;27.00;48.70
51011;DHT22;37038;50.182;8.624;2022-08-21T12:07:38;27.10;48.40
51011;DHT22;37038;50.182;8.624;2022-08-21T12:10:37;27.10;49.70
51011;DHT22;37038;50.182;8.624;2022-08-21T12:13:34;27.10;53.10
51011;DHT22;37038;50.182;8.624;2022-08-21T12:16:38;27.20;48.70
51011;DHT22;37038;50.182;8.624;2022-08-21T12:19:32;27.20;47.20
51011;DHT22;37038;50.182;8.624;2022-08-21T12:22:38;27.20;48.50
51011;DHT22;37038;50.182;8.624;2022-08-21T12:25:47;27.20;44.80
51011;DHT22;37038;50.182;8.624;2022-08-21T12:28:50;27.10;45.10
51011;DHT22;37038;50.182;8.624;2022-08-21T12:32:02;27.10;45.50
51011;DHT22;37038;50.182;8.624;2022-08-21T12:35:21;27.20;47.30
51011;DHT22;37038;50.182;8.624;2022-08-21T12:38:22;27.40;47.00
51011;DHT22;37038;50.182;8.624;2022-08-21T12:41:47;27.60;49.60
51011;DHT22;37038;50.182;8.624;2022-08-21T12:45:03;27.80;47.90
51011;DHT22;37038;50.182;8.624;2022-08-21T12:48:04;28.00;45.10
51011;DHT22;37038;50.182;8.624;2022-08-21T12:51:34;28.00;44.10
51011;DHT22;37038;50.182;8.624;2022-08-21T12:54:42;28.00;43.70
51011;DHT22;37038;50.182;8.624;2022-08-21T12:57:39;28.00;43.10
51011;DHT22;37038;50.182;8.624;2022-08-21T13:00:32;27.70;43.50
51011;DHT22;37038;50.182;8.624;2022-08-21T13:03:24;27.40;42.80
51011;DHT22;37038;50.182;8.624;2022-08-21T13:06:18;27.20;43.20
51011;DHT22;37038;50.182;8.624;2022-08-21T13:09:16;26.90;43.90
51011;DHT22;37038;50.182;8.624;2022-08-21T13:12:13;26.70;44.10
51011;DHT22;37038;50.182;8.624;2022-08-21T13:15:06;26.50;44.10
51011;DHT22;37038;50.182;8.624;2022-08-21T13:17:58;26.40;43.90
51011;DHT22;37038;50.182;8.624;2022-08-21T13:20:51;26.20;44.00
51011;DHT22;37038;50.182;8.624;2022-08-21T13:23:52;26.00;44.30
51011;DHT22;37038;50.182;8.624;2022-08-21T13:26:45;26.00;45.00
51011;DHT22;37038;50.182;8.624;2022-08-21T13:29:34;26.00;43.70
51011;DHT22;37038;50.182;8.624;2022-08-21T13:32:27;26.00;44.90
51011;DHT22;37038;50.182;8.624;2022-08-21T13:35:31;25.90;43.60
51011;DHT22;37038;50.182;8.624;2022-08-21T13:38:28;25.90;45.00
51011;DHT22;37038;50.182;8.624;2022-08-21T13:41:43;25.90;43.90
51011;DHT22;37038;50.182;8.624;2022-08-21T13:44:44;25.90;43.90
51011;DHT22;37038;50.182;8.624;2022-08-21T13:47:36;26.00;43.50
51011;DHT22;37038;50.182;8.624;2022-08-21T13:50:28;25.90;43.20
51011;DHT22;37038;50.182;8.624;2022-08-21T13:56:48;25.70;41.90
51011;DHT22;37038;50.182;8.624;2022-08-21T13:59:39;25.70;41.60
51011;DHT22;37038;50.182;8.624;2022-08-21T14:02:41;25.60;42.20
51011;DHT22;37038;50.182;8.624;2022-08-21T14:05:36;25.70;42.80
51011;DHT22;37038;50.182;8.624;2022-08-21T14:08:33;25.80;43.20
51011;DHT22;37038;50.182;8.624;2022-08-21T14:11:25;25.90;42.40
51011;DHT22;37038;50.182;8.624;2022-08-21T14:14:29;26.00;41.70
51011;DHT22;37038;50.182;8.624;2022-08-21T14:17:34;26.00;42.20
51011;DHT22;37038;50.182;8.624;2022-08-21T14:20:32;26.10;41.40
51011;DHT22;37038;50.182;8.624;2022-08-21T14:23:27;26.10;41.10
51011;DHT22;37038;50.182;8.624;2022-08-21T14:26:16;26.20;41.20
51011;DHT22;37038;50.182;8.624;2022-08-21T14:29:11;26.30;42.40
51011;DHT22;37038;50.182;8.624;2022-08-21T14:32:25;26.30;43.90
51011;DHT22;37038;50.182;8.624;2022-08-21T14:35:21;26.40;41.00
51011;DHT22;37038;50.182;8.624;2022-08-21T14:38:18;26.40;39.30
51011;DHT22;37038;50.182;8.624;2022-08-21T14:41:18;26.30;39.70
51011;DHT22;37038;50.182;8.624;2022-08-21T14:44:13;26.10;41.00
51011;DHT22;37038;50.182;8.624;2022-08-21T14:47:05;26.00;40.70
51011;DHT22;37038;50.182;8.624;2022-08-21T14:49:57;26.00;40.60
51011;DHT22;37038;50.182;8.624;2022-08-21T14:52:47;26.00;40.50
51011;DHT22;37038;50.182;8.624;2022-08-21T14:55:39;26.00;39.30
51011;DHT22;37038;50.182;8.624;2022-08-21T14:58:49;25.90;40.40
51011;DHT22;37038;50.182;8.624;2022-08-21T15:01:41;25.90;40.20
51011;DHT22;37038;50.182;8.624;2022-08-21T15:04:32;25.80;39.80
51011;DHT22;37038;50.182;8.624;2022-08-21T15:07:24;25.70;39.70
51011;DHT22;37038;50.182;8.624;2022-08-21T15:10:16;25.60;40.50
51011;DHT22;37038;50.182;8.624;2022-08-21T15:13:09;25.60;40.10
51011;DHT22;37038;50.182;8.624;2022-08-21T15:16:00;25.60;40.30
51011;DHT22;37038;50.182;8.624;2022-08-21T15:18:51;25.50;39.80
51011;DHT22;37038;50.182;8.624;2022-08-21T15:21:42;25.50;40.20
51011;DHT22;37038;50.182;8.624;2022-08-21T15:24:33;25.50;41.40
51011;DHT22;37038;50.182;8.624;2022-08-21T15:27:25;25.40;40.40
51011;DHT22;37038;50.182;8.624;2022-08-21T15:30:17;25.40;39.90
51011;DHT22;37038;50.182;8.624;2022-08-21T15:33:09;25.40;40.70
51011;DHT22;37038;50.182;8.624;2022-08-21T15:36:00;25.40;40.10
51011;DHT22;37038;50.182;8.624;2022-08-21T15:38:52;25.50;40.10
51011;DHT22;37038;50.182;8.624;2022-08-21T15:41:42;25.50;39.20
51011;DHT22;37038;50.182;8.624;2022-08-21T15:44:33;25.50;39.40
51011;DHT22;37038;50.182;8.624;2022-08-21T15:47:33;25.60;39.70
51011;DHT22;37038;50.182;8.624;2022-08-21T15:50:25;25.70;40.40
51011;DHT22;37038;50.182;8.624;2022-08-21T15:53:18;25.70;40.30
51011;DHT22;37038;50.182;8.624;2022-08-21T15:56:33;25.70;40.10
51011;DHT22;37038;50.182;8.624;2022-08-21T15:59:25;25.70;40.20
51011;DHT22;37038;50.182;8.624;2022-08-21T16:02:27;25.60;38.80
51011;DHT22;37038;50.182;8.624;2022-08-21T16:05:20;25.60;39.80
51011;DHT22;37038;50.182;8.624;2022-08-21T16:08:12;25.50;39.80
51011;DHT22;37038;50.182;8.624;2022-08-21T16:11:03;25.50;40.00
51011;DHT22;37038;50.182;8.624;2022-08-21T16:13:55;25.50;40.50
51011;DHT22;37038;50.182;8.624;2022-08-21T16:16:48;25.50;40.50
51011;DHT22;37038;50.182;8.624;2022-08-21T16:19:40;25.50;41.90
51011;DHT22;37038;50.182;8.624;2022-08-21T16:22:34;25.50;42.80
51011;DHT22;37038;50.182;8.624;2022-08-21T16:25:37;25.40;42.00
51011;DHT22;37038;50.182;8.624;2022-08-21T16:28:33;25.40;41.60
51011;DHT22;37038;50.182;8.624;2022-08-21T16:31:26;25.40;42.60
51011;DHT22;37038;50.182;8.624;2022-08-21T16:34:19;25.40;40.80
51011;DHT22;37038;50.182;8.624;2022-08-21T16:37:10;25.40;39.60
51011;DHT22;37038;50.182;8.624;2022-08-21T16:40:08;25.50;39.40
51011;DHT22;37038;50.182;8.624;2022-08-21T16:42:59;25.40;40.70
51011;DHT22;37038;50.182;8.624;2022-08-21T16:45:49;25.40;40.50
51011;DHT22;37038;50.182;8.624;2022-08-21T16:48:41;25.40;39.60
51011;DHT22;37038;50.182;8.624;2022-08-21T16:51:33;25.40;39.20
51011;DHT22;37038;50.182;8.624;2022-08-21T16:54:26;25.40;38.90
51011;DHT22;37038;50.182;8.624;2022-08-21T16:57:20;25.30;39.10
51011;DHT22;37038;50.182;8.624;2022-08-21T17:00:11;25.20;39.70
51011;DHT22;37038;50.182;8.624;2022-08-21T17:03:02;25.10;39.40
51011;DHT22;37038;50.182;8.624;2022-08-21T17:05:54;25.20;40.60
51011;DHT22;37038;50.182;8.624;2022-08-21T17:08:45;25.40;37.50
51011;DHT22;37038;50.182;8.624;2022-08-21T17:11:46;25.40;38.40
51011;DHT22;37038;50.182;8.624;2022-08-21T17:14:39;25.40;37.50
51011;DHT22;37038;50.182;8.624;2022-08-21T17:17:32;25.30;37.80
51011;DHT22;37038;50.182;8.624;2022-08-21T17:20:23;25.20;37.40
51011;DHT22;37038;50.182;8.624;2022-08-21T17:23:16;25.20;37.60
51011;DHT22;37038;50.182;8.624;2022-08-21T17:26:07;25.10;38.60
51011;DHT22;37038;50.182;8.624;2022-08-21T17:29:02;24.90;38.30
51011;DHT22;37038;50.182;8.624;2022-08-21T17:31:57;24.80;37.80
51011;DHT22;37038;50.182;8.624;2022-08-21T17:34:49;24.70;38.30
51011;DHT22;37038;50.182;8.624;2022-08-21T17:37:41;24.60;37.70
51011;DHT22;37038;50.182;8.624;2022-08-21T17:40:35;24.50;38.30
51011;DHT22;37038;50.182;8.624;2022-08-21T17:43:27;24.40;38.50
51011;DHT22;37038;50.182;8.624;2022-08-21T17:46:26;24.30;38.80
51011;DHT22;37038;50.182;8.624;2022-08-21T17:49:17;24.20;39.60
51011;DHT22;37038;50.182;8.624;2022-08-21T17:52:08;24.00;40.10
51011;DHT22;37038;50.182;8.624;2022-08-21T17:54:59;24.00;39.70
51011;DHT22;37038;50.182;8.624;2022-08-21T17:57:51;23.90;40.10
51011;DHT22;37038;50.182;8.624;2022-08-21T18:00:45;23.90;40.10
51011;DHT22;37038;50.182;8.624;2022-08-21T18:03:37;23.80;40.40
51011;DHT22;37038;50.182;8.624;2022-08-21T18:06:29;23.70;40.80
51011;DHT22;37038;50.182;8.624;2022-08-21T18:09:21;23.60;41.00
51011;DHT22;37038;50.182;8.624;2022-08-21T18:12:17;23.50;41.70
51011;DHT22;37038;50.182;8.624;2022-08-21T18:15:06;23.20;42.20
51011;DHT22;37038;50.182;8.624;2022-08-21T18:17:58;23.10;42.80
51011;DHT22;37038;50.182;8.624;2022-08-21T18:20:50;22.90;43.20
51011;DHT22;37038;50.182;8.624;2022-08-21T18:23:42;22.80;43.40
51011;DHT22;37038;50.182;8.624;2022-08-21T18:26:36;22.80;43.90
51011;DHT22;37038;50.182;8.624;2022-08-21T18:29:28;22.70;43.80
51011;DHT22;37038;50.182;8.624;2022-08-21T18:32:23;22.70;43.70
51011;DHT22;37038;50.182;8.624;2022-08-21T18:35:19;22.60;44.00
51011;DHT22;37038;50.182;8.624;2022-08-21T18:38:11;22.60;44.10
51011;DHT22;37038;50.182;8.624;2022-08-21T18:41:03;22.50;44.50
51011;DHT22;37038;50.182;8.624;2022-08-21T18:43:59;22.40;44.90
51011;DHT22;37038;50.182;8.624;2022-08-21T18:46:58;22.30;44.50
51011;DHT22;37038;50.182;8.624;2022-08-21T18:49:52;22.30;44.90
51011;DHT22;37038;50.182;8.624;2022-08-21T18:52:41;22.30;45.40
51011;DHT22;37038;50.182;8.624;2022-08-21T18:55:43;22.30;46.70
51011;DHT22;37038;50.182;8.624;2022-08-21T18:58:34;22.20;47.00
51011;DHT22;37038;50.182;8.624;2022-08-21T19:01:25;22.10;47.10
51011;DHT22;37038;50.182;8.624;2022-08-21T19:04:15;22.00;48.30
51011;DHT22;37038;50.182;8.624;2022-08-21T19:07:26;22.00;48.50
51011;DHT22;37038;50.182;8.624;2022-08-21T19:10:19;21.80;49.20
51011;DHT22;37038;50.182;8.624;2022-08-21T19:13:20;21.70;49.80
51011;DHT22;37038;50.182;8.624;2022-08-21T19:16:12;21.60;50.30